createdAt,value
2019-05-21T00:00:59.478Z,35.47
2019-05-21T00:03:27.787Z,32.57
2019-05-21T00:05:56.013Z,32.47
2019-05-21T00:08:24.198Z,36.13
2019-05-21T00:10:52.450Z,36.50
2019-05-21T00:13:20.695Z,40.10
2019-05-21T00:15:48.937Z,34.95
2019-05-21T00:18:17.154Z,35.50
2019-05-21T00:20:45.348Z,38.77
2019-05-21T00:23:13.538Z,35.30
2019-05-21T00:25:41.756Z,35.70
2019-05-21T00:28:14.520Z,34.17
2019-05-21T00:31:00.670Z,37.45
2019-05-21T00:33:46.828Z,38.57
2019-05-21T00:36:33.128Z,34.23
2019-05-21T00:39:19.447Z,36.23
2019-05-21T00:41:59.348Z,37.10
2019-05-21T00:44:27.888Z,37.70
2019-05-21T00:46:56.129Z,38.20
2019-05-21T00:49:24.356Z,34.97
2019-05-21T00:52:06.499Z,37.10
2019-05-21T00:54:22.460Z,38.90
2019-05-21T00:56:50.698Z,33.87
2019-05-21T00:59:18.947Z,37.47
2019-05-21T01:01:47.141Z,34.90
2019-05-21T01:04:15.351Z,36.33
2019-05-21T01:06:43.641Z,37.15
2019-05-21T01:09:11.831Z,41.05
2019-05-21T01:11:40.095Z,37.30
2019-05-21T01:14:09.260Z,34.93
2019-05-21T01:16:37.486Z,35.63
2019-05-21T01:19:05.779Z,37.30
2019-05-21T01:21:33.985Z,33.87
2019-05-21T01:24:02.208Z,37.37
2019-05-21T01:26:30.390Z,39.10
2019-05-21T01:28:58.627Z,36.23
2019-05-21T01:31:26.886Z,34.97
2019-05-21T01:33:55.165Z,38.67
2019-05-21T01:36:23.385Z,39.60
2019-05-21T01:38:52.564Z,38.20
2019-05-21T01:41:20.783Z,36.63
2019-05-21T01:43:48.993Z,40.83
2019-05-21T01:46:17.197Z,39.97
2019-05-21T01:48:46.314Z,37.40
2019-05-21T01:51:14.509Z,38.73
2019-05-21T01:53:43.663Z,33.20
2019-05-21T01:56:12.792Z,37.30
2019-05-21T01:58:40.978Z,35.30
2019-05-21T02:01:09.200Z,41.60
2019-05-21T02:03:37.413Z,49.73
2019-05-21T02:06:05.592Z,43.20
2019-05-21T02:08:33.853Z,43.20
2019-05-21T02:11:02.069Z,38.83
2019-05-21T02:13:30.281Z,41.43
2019-05-21T02:15:58.477Z,39.77
2019-05-21T02:18:26.693Z,37.33
2019-05-21T02:20:54.948Z,36.90
2019-05-21T02:23:23.137Z,39.50
2019-05-21T02:25:51.371Z,36.40
2019-05-21T02:28:19.562Z,37.97
2019-05-21T02:30:47.793Z,36.13
2019-05-21T02:33:16.025Z,37.27
2019-05-21T02:35:54.215Z,37.10
2019-05-21T02:38:17.205Z,35.37
2019-05-21T02:40:45.421Z,36.10
2019-05-21T02:43:13.612Z,36.50
2019-05-21T02:45:41.801Z,31.43
2019-05-21T02:48:10.694Z,34.47
2019-05-21T02:50:38.923Z,34.13
2019-05-21T02:53:07.234Z,31.80
2019-05-21T02:55:35.481Z,33.30
2019-05-21T02:58:03.678Z,37.97
2019-05-21T03:00:38.218Z,38.00
2019-05-21T03:03:05.081Z,39.90
2019-05-21T03:05:33.319Z,36.33
2019-05-21T03:08:01.600Z,36.30
2019-05-21T03:10:29.831Z,40.27
2019-05-21T03:12:58.003Z,36.97
2019-05-21T03:15:26.219Z,36.83
2019-05-21T03:17:54.491Z,42.07
2019-05-21T03:20:22.831Z,42.90
2019-05-21T03:22:51.123Z,40.40
2019-05-21T03:25:19.454Z,41.97
2019-05-21T03:27:47.720Z,39.70
2019-05-21T03:30:16.018Z,41.70
2019-05-21T03:32:44.371Z,43.87
2019-05-21T03:35:12.688Z,51.63
2019-05-21T03:37:41.043Z,44.07
2019-05-21T03:40:10.239Z,45.57
2019-05-21T03:42:38.526Z,46.33
2019-05-21T03:45:08.036Z,41.63
2019-05-21T03:47:36.676Z,40.30
2019-05-21T03:50:05.403Z,44.97
2019-05-21T03:52:33.953Z,44.23
2019-05-21T03:55:03.276Z,42.60
2019-05-21T03:57:31.908Z,45.70
2019-05-21T04:00:00.294Z,42.10
2019-05-21T04:02:28.563Z,39.40
2019-05-21T04:04:56.830Z,38.03
2019-05-21T04:07:25.131Z,40.20
2019-05-21T04:09:53.489Z,36.70
2019-05-21T04:12:21.833Z,34.40
2019-05-21T04:14:57.548Z,36.00
2019-05-21T04:17:44.024Z,37.43
2019-05-21T04:20:12.629Z,34.00
2019-05-21T04:22:42.590Z,37.57
2019-05-21T04:25:10.922Z,38.00
2019-05-21T04:27:39.270Z,37.40
2019-05-21T04:30:11.098Z,38.40
2019-05-21T04:32:37.625Z,41.23
2019-05-21T04:35:06.146Z,37.53
2019-05-21T04:37:34.516Z,35.07
2019-05-21T04:40:02.843Z,35.97
2019-05-21T04:42:32.047Z,33.50
2019-05-21T04:45:00.331Z,36.90
2019-05-21T04:47:28.641Z,36.23
2019-05-21T04:49:56.990Z,36.37
2019-05-21T04:52:26.257Z,37.50
2019-05-21T04:54:54.613Z,39.87
2019-05-21T04:57:22.911Z,35.60
2019-05-21T04:59:51.191Z,33.10
2019-05-21T05:02:19.516Z,30.07
2019-05-21T05:04:47.852Z,35.80
2019-05-21T05:07:27.714Z,34.90
2019-05-21T05:09:46.086Z,30.83
2019-05-21T05:12:14.414Z,31.90
2019-05-21T05:14:42.727Z,31.00
2019-05-21T05:17:11.084Z,37.17
2019-05-21T05:19:39.449Z,33.93
2019-05-21T05:22:07.782Z,33.40
2019-05-21T05:24:37.166Z,31.23
2019-05-21T05:27:05.756Z,31.87
2019-05-21T05:29:34.015Z,37.60
2019-05-21T05:32:02.367Z,32.50
2019-05-21T05:34:30.625Z,31.90
2019-05-21T05:36:59.014Z,28.70
2019-05-21T05:39:27.272Z,30.57
2019-05-21T05:41:55.534Z,28.40
2019-05-21T05:44:23.853Z,31.27
2019-05-21T05:46:52.204Z,33.93
2019-05-21T05:49:22.174Z,30.00
2019-05-21T05:51:50.519Z,30.70
2019-05-21T05:54:18.945Z,31.13
2019-05-21T05:56:47.228Z,28.23
2019-05-21T05:59:15.575Z,30.03
2019-05-21T06:01:43.931Z,29.50
2019-05-21T06:04:12.284Z,29.50
2019-05-21T06:06:40.525Z,29.33
2019-05-21T06:09:08.786Z,31.13
2019-05-21T06:11:37.121Z,29.40
2019-05-21T06:14:05.467Z,29.70
2019-05-21T06:16:33.831Z,28.73
2019-05-21T06:19:02.138Z,28.93
2019-05-21T06:21:30.476Z,27.23
2019-05-21T06:23:58.839Z,29.97
2019-05-21T06:26:27.188Z,26.00
2019-05-21T06:28:55.458Z,28.07
2019-05-21T06:31:23.783Z,32.30
2019-05-21T06:33:52.117Z,28.50
2019-05-21T06:36:20.403Z,33.53
2019-05-21T06:38:48.757Z,27.37
2019-05-21T06:41:17.111Z,30.50
2019-05-21T06:43:45.474Z,29.80
2019-05-21T06:46:13.769Z,27.70
2019-05-21T06:48:42.079Z,24.40
2019-05-21T06:51:10.449Z,25.33
2019-05-21T06:53:39.701Z,23.67
2019-05-21T06:56:08.093Z,25.93
2019-05-21T06:58:36.437Z,24.30
2019-05-21T07:01:04.711Z,23.00
2019-05-21T07:03:32.974Z,22.63
2019-05-21T07:06:01.257Z,23.50
2019-05-21T07:08:34.728Z,19.10
2019-05-21T07:10:59.783Z,27.20
2019-05-21T07:13:31.023Z,19.60
2019-05-21T07:15:58.053Z,19.30
2019-05-21T07:18:26.327Z,17.00
2019-05-21T07:20:54.583Z,18.80
2019-05-21T07:23:22.892Z,16.50
2019-05-21T07:25:51.143Z,14.90
2019-05-21T07:28:19.420Z,12.73
2019-05-21T07:30:47.736Z,13.70
2019-05-21T07:33:16.119Z,13.73
2019-05-21T07:35:44.404Z,13.17
2019-05-21T07:38:12.768Z,11.70
2019-05-21T07:40:41.220Z,12.63
2019-05-21T07:43:09.543Z,12.20
2019-05-21T07:45:37.886Z,14.30
2019-05-21T07:48:06.142Z,10.83
2019-05-21T07:50:34.413Z,12.30
2019-05-21T07:53:02.763Z,10.67
2019-05-21T07:55:31.040Z,13.77
2019-05-21T07:57:59.381Z,13.87
2019-05-21T08:00:27.755Z,12.57
2019-05-21T08:02:56.064Z,12.70
2019-05-21T08:05:24.421Z,13.00
2019-05-21T08:07:52.666Z,13.27
2019-05-21T08:10:20.998Z,14.13
2019-05-21T08:12:49.280Z,14.10
2019-05-21T08:15:17.600Z,12.37
2019-05-21T08:17:45.899Z,13.37
2019-05-21T08:20:14.758Z,13.23
2019-05-21T08:22:43.041Z,13.60
2019-05-21T08:25:14.491Z,15.17
2019-05-21T08:27:41.358Z,11.20
2019-05-21T08:30:09.855Z,10.70
2019-05-21T08:32:38.063Z,6.60
2019-05-21T08:35:06.475Z,8.30
2019-05-21T08:37:34.779Z,10.80
2019-05-21T08:40:04.183Z,8.57
2019-05-21T08:42:32.665Z,7.60
2019-05-21T08:45:01.009Z,6.70
2019-05-21T08:47:29.353Z,7.20
2019-05-21T08:49:57.706Z,6.67
2019-05-21T08:52:26.058Z,12.30
2019-05-21T08:54:56.446Z,7.50
2019-05-21T08:57:24.306Z,9.47
2019-05-21T08:59:52.634Z,7.30
2019-05-21T09:02:20.913Z,7.60
2019-05-21T09:04:49.328Z,9.27
2019-05-21T09:07:17.740Z,8.80
2019-05-21T09:09:50.604Z,8.85
2019-05-21T09:12:16.041Z,7.87
2019-05-21T09:14:44.310Z,6.77
2019-05-21T09:17:12.651Z,8.03
2019-05-21T09:19:40.903Z,8.83
2019-05-21T09:22:09.236Z,7.97
2019-05-21T09:24:37.457Z,7.13
2019-05-21T09:27:05.754Z,6.17
2019-05-21T09:29:34.007Z,5.87
2019-05-21T09:32:02.512Z,7.30
2019-05-21T09:34:47.532Z,6.63
2019-05-21T09:37:00.760Z,7.87
2019-05-21T09:39:29.125Z,8.17
2019-05-21T09:41:57.423Z,6.50
2019-05-21T09:44:25.751Z,6.90
2019-05-21T09:46:54.057Z,7.33
2019-05-21T09:49:22.392Z,7.43
2019-05-21T09:51:50.722Z,6.30
2019-05-21T09:54:19.068Z,5.90
2019-05-21T09:56:47.362Z,5.83
2019-05-21T09:59:17.256Z,6.07
2019-05-21T10:01:56.224Z,5.70
2019-05-21T10:04:24.533Z,8.33
2019-05-21T10:06:52.777Z,9.37
2019-05-21T10:09:21.275Z,6.47
2019-05-21T10:11:49.587Z,8.27
2019-05-21T10:14:17.861Z,7.47
2019-05-21T10:16:46.176Z,5.60
2019-05-21T10:19:14.466Z,6.60
2019-05-21T10:21:42.791Z,8.17
2019-05-21T10:24:11.211Z,6.40
2019-05-21T10:26:39.481Z,6.83
2019-05-21T10:29:07.726Z,6.10
2019-05-21T10:31:36.085Z,5.90
2019-05-21T10:34:04.472Z,5.97
2019-05-21T10:36:32.787Z,6.53
2019-05-21T10:39:01.071Z,7.40
2019-05-21T10:41:29.398Z,6.73
2019-05-21T10:43:57.694Z,6.10
2019-05-21T10:46:25.988Z,5.97
2019-05-21T10:48:54.262Z,5.87
2019-05-21T10:51:22.517Z,6.27
2019-05-21T10:53:50.811Z,5.63
2019-05-21T10:56:19.085Z,6.10
2019-05-21T10:58:47.442Z,6.47
2019-05-21T11:01:26.596Z,7.00
2019-05-21T11:03:59.511Z,6.33
2019-05-21T11:06:27.834Z,7.43
2019-05-21T11:08:56.167Z,6.00
2019-05-21T11:11:24.492Z,6.20
2019-05-21T11:13:52.839Z,5.90
2019-05-21T11:16:21.070Z,5.70
2019-05-21T11:18:49.411Z,5.67
2019-05-21T11:21:17.730Z,5.50
2019-05-21T11:23:46.261Z,6.20
2019-05-21T11:26:14.639Z,7.10
2019-05-21T11:28:42.979Z,5.50
2019-05-21T11:31:11.322Z,6.70
2019-05-21T11:33:39.578Z,7.67
2019-05-21T11:36:07.917Z,5.87
2019-05-21T11:38:40.064Z,5.77
2019-05-21T11:41:06.161Z,6.17
2019-05-21T11:43:34.514Z,5.77
2019-05-21T11:46:03.298Z,7.97
2019-05-21T11:48:31.637Z,5.37
2019-05-21T11:50:59.908Z,5.80
2019-05-21T11:53:31.801Z,5.90
2019-05-21T11:55:58.099Z,5.97
2019-05-21T11:58:26.373Z,6.23
2019-05-21T12:00:54.608Z,5.00
2019-05-21T12:03:22.965Z,8.10
2019-05-21T12:05:51.292Z,7.93
2019-05-21T12:08:19.541Z,7.97
2019-05-21T12:10:47.825Z,5.70
2019-05-21T12:13:20.278Z,5.90
2019-05-21T12:15:46.124Z,5.83
2019-05-21T12:18:14.443Z,5.33
2019-05-21T12:20:43.030Z,8.10
2019-05-21T12:23:11.290Z,6.07
2019-05-21T12:25:39.599Z,6.70
2019-05-21T12:28:11.171Z,6.00
2019-05-21T12:30:37.866Z,6.33
2019-05-21T12:33:06.108Z,7.50
2019-05-21T12:35:34.450Z,5.70
2019-05-21T12:38:02.790Z,5.90
2019-05-21T12:40:31.085Z,5.40
2019-05-21T12:42:59.417Z,5.60
2019-05-21T12:45:27.690Z,5.10
2019-05-21T12:47:55.970Z,5.00
2019-05-21T12:50:24.412Z,5.30
2019-05-21T12:52:52.725Z,5.13
2019-05-21T12:55:20.998Z,4.93
2019-05-21T12:57:49.307Z,5.10
2019-05-21T13:00:17.854Z,4.00
2019-05-21T13:02:46.152Z,5.90
2019-05-21T13:05:14.595Z,4.53
2019-05-21T13:07:42.893Z,4.70
2019-05-21T13:10:11.244Z,7.27
2019-05-21T13:12:39.551Z,4.10
2019-05-21T13:15:07.868Z,4.10
2019-05-21T13:17:36.200Z,4.20
2019-05-21T13:20:08.541Z,4.00
2019-05-21T13:22:36.991Z,3.40
2019-05-21T13:25:06.221Z,3.90
2019-05-21T13:27:34.562Z,4.97
2019-05-21T13:30:03.535Z,4.10
2019-05-21T13:32:31.824Z,3.73
2019-05-21T13:35:00.215Z,4.60
2019-05-21T13:37:28.439Z,4.90
2019-05-21T13:39:56.845Z,5.40
2019-05-21T13:42:25.099Z,3.77
2019-05-21T13:44:53.383Z,4.13
2019-05-21T13:47:21.700Z,4.97
2019-05-21T13:49:50.064Z,4.77
2019-05-21T13:52:18.348Z,4.87
2019-05-21T13:54:46.673Z,5.13
2019-05-21T13:57:15.015Z,4.87
2019-05-21T13:59:43.374Z,4.87
2019-05-21T14:02:13.328Z,6.20
2019-05-21T14:04:41.693Z,6.37
2019-05-21T14:07:10.062Z,4.33
2019-05-21T14:09:38.399Z,5.30
2019-05-21T14:12:06.840Z,4.70
2019-05-21T14:14:35.163Z,5.03
2019-05-21T14:17:03.441Z,4.87
2019-05-21T14:19:31.710Z,4.97
2019-05-21T14:22:00.009Z,5.43
2019-05-21T14:24:28.319Z,4.50
2019-05-21T14:26:56.611Z,4.90
2019-05-21T14:29:24.864Z,4.03
2019-05-21T14:31:53.127Z,4.07
2019-05-21T14:34:21.441Z,4.50
2019-05-21T14:36:49.774Z,5.50
2019-05-21T14:39:18.527Z,5.30
2019-05-21T14:41:46.879Z,4.37
2019-05-21T14:44:15.140Z,4.57
2019-05-21T14:46:43.480Z,4.40
2019-05-21T14:49:11.737Z,4.13
2019-05-21T14:51:40.075Z,4.03
2019-05-21T14:54:23.798Z,8.03
2019-05-21T14:56:38.365Z,4.80
2019-05-21T14:59:06.734Z,4.00
2019-05-21T15:01:35.068Z,7.67
2019-05-21T15:04:03.624Z,4.60
2019-05-21T15:06:31.942Z,6.10
2019-05-21T15:09:00.322Z,4.70
2019-05-21T15:11:28.717Z,4.20
2019-05-21T15:13:57.048Z,4.70
2019-05-21T15:16:25.354Z,6.30
2019-05-21T15:18:53.703Z,5.93
2019-05-21T15:21:26.501Z,6.23
2019-05-21T15:23:54.836Z,6.93
2019-05-21T15:26:23.211Z,8.13
2019-05-21T15:28:51.523Z,6.80
2019-05-21T15:31:19.855Z,6.30
2019-05-21T15:33:48.194Z,6.43
2019-05-21T15:36:16.479Z,6.53
2019-05-21T15:38:50.626Z,5.60
2019-05-21T15:41:14.781Z,6.07
2019-05-21T15:43:43.060Z,6.17
2019-05-21T15:46:12.242Z,5.77
2019-05-21T15:48:40.514Z,6.70
2019-05-21T15:51:08.849Z,7.30
2019-05-21T15:53:37.138Z,6.80
2019-05-21T15:56:05.466Z,7.07
2019-05-21T15:58:33.717Z,8.17
2019-05-21T16:01:02.097Z,7.70
2019-05-21T16:03:30.461Z,7.73
2019-05-21T16:05:58.875Z,7.35
2019-05-21T16:08:27.153Z,8.37
2019-05-21T16:10:55.536Z,8.10
2019-05-21T16:13:23.818Z,8.00
2019-05-21T16:15:52.139Z,7.57
2019-05-21T16:18:20.413Z,9.27
2019-05-21T16:20:48.733Z,8.40
2019-05-21T16:23:18.625Z,7.93
2019-05-21T16:25:46.895Z,8.20
2019-05-21T16:28:15.221Z,8.30
2019-05-21T16:30:43.574Z,7.53
2019-05-21T16:33:11.907Z,7.83
2019-05-21T16:35:40.179Z,6.30
2019-05-21T16:38:08.453Z,6.43
2019-05-21T16:40:36.898Z,5.87
2019-05-21T16:43:05.311Z,4.60
2019-05-21T16:45:33.519Z,4.30
2019-05-21T16:48:01.773Z,4.50
2019-05-21T16:50:30.024Z,4.63
2019-05-21T16:52:58.322Z,4.00
2019-05-21T16:55:26.627Z,4.70
2019-05-21T16:57:56.336Z,4.47
2019-05-21T17:00:26.455Z,4.63
2019-05-21T17:02:54.746Z,4.47
2019-05-21T17:05:23.062Z,4.70
2019-05-21T17:07:51.384Z,5.20
2019-05-21T17:10:19.624Z,4.80
2019-05-21T17:12:47.976Z,4.40
2019-05-21T17:15:16.291Z,4.57
2019-05-21T17:17:44.544Z,5.00
2019-05-21T17:20:13.049Z,5.00
2019-05-21T17:22:41.350Z,5.27
2019-05-21T17:25:09.880Z,5.53
2019-05-21T17:27:38.243Z,4.70
2019-05-21T17:30:07.355Z,5.20
2019-05-21T17:32:35.765Z,6.75
2019-05-21T17:35:07.307Z,5.10
2019-05-21T17:37:35.713Z,5.90
2019-05-21T17:40:04.768Z,5.53
2019-05-21T17:42:33.097Z,5.80
2019-05-21T17:45:01.373Z,5.40
2019-05-21T17:47:29.717Z,5.20
2019-05-21T17:49:58.072Z,5.80
2019-05-21T17:52:26.355Z,7.47
2019-05-21T17:54:57.064Z,5.50
2019-05-21T17:57:24.703Z,5.70
2019-05-21T17:59:52.996Z,8.23
2019-05-21T18:02:21.710Z,5.97
2019-05-21T18:04:50.344Z,6.60
2019-05-21T18:07:18.797Z,7.73
2019-05-21T18:09:47.327Z,6.47
2019-05-21T18:12:31.157Z,6.63
2019-05-21T18:14:47.270Z,6.10
2019-05-21T18:17:17.156Z,6.93
2019-05-21T18:19:45.685Z,7.97
2019-05-21T18:22:16.019Z,8.90
2019-05-21T18:24:47.861Z,7.13
2019-05-21T18:27:14.243Z,9.77
2019-05-21T18:29:42.569Z,9.83
2019-05-21T18:32:10.843Z,7.70
2019-05-21T18:34:39.156Z,9.00
2019-05-21T18:37:07.467Z,7.90
2019-05-21T18:39:35.970Z,9.20
2019-05-21T18:42:04.752Z,8.43
2019-05-21T18:44:32.996Z,9.17
2019-05-21T18:47:01.271Z,11.10
2019-05-21T18:49:29.635Z,11.73
2019-05-21T18:51:57.961Z,8.00
2019-05-21T18:54:26.219Z,8.00
2019-05-21T18:56:54.744Z,8.13
2019-05-21T18:59:23.155Z,10.50
2019-05-21T19:01:51.527Z,11.75
2019-05-21T19:04:19.869Z,9.17
2019-05-21T19:06:48.246Z,12.17
2019-05-21T19:09:16.558Z,10.97
2019-05-21T19:11:44.914Z,9.23
2019-05-21T19:14:13.276Z,10.60
2019-05-21T19:16:42.175Z,9.90
2019-05-21T19:19:10.503Z,8.50
2019-05-21T19:21:38.825Z,11.13
2019-05-21T19:24:07.102Z,11.50
2019-05-21T19:26:35.471Z,10.87
2019-05-21T19:29:03.819Z,12.37
2019-05-21T19:31:32.192Z,12.23
2019-05-21T19:34:00.567Z,14.73
2019-05-21T19:36:28.850Z,13.00
2019-05-21T19:38:57.058Z,12.20
2019-05-21T19:41:25.276Z,14.93
2019-05-21T19:43:53.519Z,11.63
2019-05-21T19:46:21.770Z,11.10
2019-05-21T19:48:49.961Z,13.43
2019-05-21T19:51:18.198Z,8.20
2019-05-21T19:53:46.540Z,10.40
2019-05-21T19:56:14.812Z,8.17
2019-05-21T19:58:43.205Z,7.17
2019-05-21T20:01:12.296Z,8.13
2019-05-21T20:03:40.781Z,8.23
2019-05-21T20:06:09.640Z,12.03
2019-05-21T20:08:37.935Z,7.50
2019-05-21T20:11:06.249Z,6.60
2019-05-21T20:13:34.641Z,9.10
2019-05-21T20:16:02.981Z,7.70
2019-05-21T20:18:31.351Z,6.80
2019-05-21T20:21:00.507Z,7.10
2019-05-21T20:23:28.909Z,9.00
2019-05-21T20:25:57.276Z,8.97
2019-05-21T20:28:25.598Z,9.30
2019-05-21T20:30:54.139Z,11.60
2019-05-21T20:33:24.381Z,18.57
2019-05-21T20:35:53.631Z,16.93
2019-05-21T20:38:23.434Z,17.60
2019-05-21T20:40:52.177Z,16.27
2019-05-21T20:43:20.472Z,16.97
2019-05-21T20:45:50.551Z,17.37
2019-05-21T20:48:19.323Z,15.13
2019-05-21T20:50:47.826Z,14.30
2019-05-21T20:53:16.174Z,14.10
2019-05-21T20:55:45.010Z,15.70
2019-05-21T20:58:13.907Z,15.33
2019-05-21T21:00:46.603Z,15.47
2019-05-21T21:03:15.192Z,14.03
2019-05-21T21:05:43.870Z,14.77
2019-05-21T21:08:13.690Z,13.77
2019-05-21T21:10:42.396Z,14.07
2019-05-21T21:13:11.345Z,16.20
2019-05-21T21:15:39.762Z,15.00
2019-05-21T21:18:08.841Z,27.37
2019-05-21T21:20:37.186Z,13.77
2019-05-21T21:23:05.494Z,11.73
2019-05-21T21:25:33.749Z,13.53
2019-05-21T21:28:02.062Z,11.80
2019-05-21T21:30:30.882Z,11.40
2019-05-21T21:33:00.026Z,13.73
2019-05-21T21:35:28.402Z,11.43
2019-05-21T21:37:56.886Z,11.67
2019-05-21T21:40:25.218Z,11.47
2019-05-21T21:42:53.860Z,13.00
2019-05-21T21:45:22.178Z,13.30
2019-05-21T21:47:50.836Z,12.73
2019-05-21T21:50:19.089Z,14.07
2019-05-21T21:52:47.527Z,11.70
2019-05-21T21:55:16.039Z,11.17
2019-05-21T21:57:44.295Z,10.83
2019-05-21T22:00:33.975Z,11.47
2019-05-21T22:03:04.091Z,11.63
2019-05-21T22:05:33.287Z,11.30
2019-05-21T22:08:01.634Z,11.30
2019-05-21T22:10:29.949Z,9.97
2019-05-21T22:12:58.425Z,10.93
2019-05-21T22:15:26.776Z,10.30
2019-05-21T22:17:55.133Z,10.13
2019-05-21T22:20:24.174Z,11.50
2019-05-21T22:22:52.439Z,11.07
2019-05-21T22:25:20.989Z,11.07
2019-05-21T22:27:49.265Z,15.47
2019-05-21T22:30:19.075Z,15.50
2019-05-21T22:32:47.339Z,15.37
2019-05-21T22:35:15.873Z,16.90
2019-05-21T22:37:44.374Z,16.37
2019-05-21T22:40:13.782Z,18.13
2019-05-21T22:42:42.087Z,20.77
2019-05-21T22:45:11.862Z,18.30
2019-05-21T22:47:40.199Z,20.33
2019-05-21T22:50:08.976Z,19.50
2019-05-21T22:52:37.349Z,20.93
2019-05-21T22:55:06.306Z,21.83
2019-05-21T22:57:34.752Z,23.53
2019-05-21T23:00:04.010Z,24.50
2019-05-21T23:02:34.253Z,24.97
2019-05-21T23:05:03.661Z,26.17
2019-05-21T23:07:31.993Z,26.47
2019-05-21T23:10:00.349Z,27.67
2019-05-21T23:12:29.439Z,28.13
2019-05-21T23:14:57.814Z,28.10
2019-05-21T23:17:26.908Z,29.37
2019-05-21T23:19:55.267Z,31.63
2019-05-21T23:22:24.000Z,32.23
2019-05-21T23:24:53.016Z,33.20
2019-05-21T23:27:21.842Z,31.70
2019-05-21T23:29:50.355Z,37.87
2019-05-21T23:32:19.215Z,42.00
2019-05-21T23:34:47.480Z,43.07
2019-05-21T23:37:20.416Z,44.93
2019-05-21T23:39:49.796Z,44.63
2019-05-21T23:42:28.963Z,51.50
2019-05-21T23:44:48.275Z,48.90
2019-05-21T23:47:16.718Z,51.73
2019-05-21T23:49:45.047Z,51.13
2019-05-21T23:52:13.401Z,55.07
2019-05-21T23:54:41.778Z,53.30
2019-05-21T23:57:12.751Z,54.90
2019-05-21T23:59:41.153Z,53.63
